Time;durP1;ratioP1;P1;durP2;ratioP2;P2;SDS_P1;SDS_P2;PMS_P1;PMS_P2;Temp;Humidity;BMP_temperature;BMP_pressure;BME280_temperature;BME280_humidity;BME280_pressure;Samples;Min_cycle;Max_cycle;Signal;HPM_P1;HPM_P2
2022/11/21 00:01:14;;;;;;;12.40;6.00;;;;;;;0.48;82.11;98433.73;101971;1294;62963;-21
2022/11/21 00:03:41;;;;;;;7.70;4.50;;;;;;;0.62;81.22;98436.33;101968;1294;75261;-21
2022/11/21 00:06:10;;;;;;;7.00;4.60;;;;;;;0.45;80.99;98433.71;102244;1299;75189;-22
2022/11/21 00:08:38;;;;;;;6.60;4.70;;;;;;;0.20;80.92;98427.24;102037;1294;73016;-21
2022/11/21 00:11:05;;;;;;;8.30;5.20;;;;;;;-0.05;81.39;98417.02;101896;1287;61272;-22
2022/11/21 00:13:33;;;;;;;10.40;5.60;;;;;;;-0.25;81.95;98411.14;102170;1297;62720;-22
2022/11/21 00:16:19;;;;;;;8.70;5.10;;;;;;;-0.43;82.18;98404.13;102197;1294;75774;-22
2022/11/21 00:18:46;;;;;;;12.30;4.80;;;;;;;-0.57;82.50;98396.59;101814;1297;74829;-22
2022/11/21 00:21:16;;;;;;;20.00;7.50;;;;;;;-0.05;82.81;98392.60;102124;1295;75697;-22
2022/11/21 00:23:44;;;;;;;19.70;7.70;;;;;;;0.53;81.59;98388.59;102216;1294;61174;-22
2022/11/21 00:26:12;;;;;;;15.30;7.20;;;;;;;0.66;81.20;98387.08;102195;1294;61840;-22
2022/11/21 00:28:40;;;;;;;9.80;5.40;;;;;;;0.50;80.70;98395.23;101929;1299;74179;-22
2022/11/21 00:31:08;;;;;;;9.30;4.70;;;;;;;0.25;80.88;98396.80;102093;1294;76760;-22
2022/11/21 00:33:37;;;;;;;9.40;5.40;;;;;;;0.02;81.72;98398.08;102140;1302;75051;-21
2022/11/21 00:36:08;;;;;;;7.80;5.50;;;;;;;-0.19;81.89;98400.65;102181;1299;62079;-21
2022/11/21 00:38:36;;;;;;;10.30;6.90;;;;;;;-0.39;82.30;98392.84;101950;1298;61960;-21
2022/11/21 00:41:04;;;;;;;4.70;3.40;;;;;;;-0.48;82.65;98386.61;102198;1299;76160;-21
2022/11/21 00:43:32;;;;;;;8.40;4.60;;;;;;;0.24;82.70;98385.90;102097;1299;75768;-21
2022/11/21 00:46:01;;;;;;;7.80;5.30;;;;;;;0.89;81.33;98383.16;102239;1302;74895;-21
2022/11/21 00:48:30;;;;;;;9.30;6.00;;;;;;;1.00;80.75;98384.82;102025;1301;62763;-22
2022/11/21 00:50:59;;;;;;;9.00;5.60;;;;;;;0.87;80.48;98396.42;102333;1299;61835;-22
2022/11/21 00:53:27;;;;;;;8.30;4.60;;;;;;;0.60;80.40;98404.43;102173;1301;75070;-22
2022/11/21 00:55:54;;;;;;;8.60;5.20;;;;;;;0.34;80.77;98395.68;102263;1294;76669;-21
2022/11/21 00:58:22;;;;;;;10.80;5.80;;;;;;;0.07;81.11;98384.88;102129;1300;74970;-21
2022/11/21 01:00:50;;;;;;;10.20;6.50;;;;;;;-0.13;81.66;98378.81;101886;1301;61215;-21
2022/11/21 01:03:17;;;;;;;8.80;5.50;;;;;;;-0.30;82.15;98379.98;101886;1291;61257;-21
2022/11/21 01:05:45;;;;;;;8.60;4.20;;;;;;;-0.44;82.43;98389.17;102093;1302;76357;-21
2022/11/21 01:08:12;;;;;;;8.40;4.80;;;;;;;0.03;82.89;98388.65;102061;1299;76496;-22
2022/11/21 01:10:40;;;;;;;9.00;5.30;;;;;;;0.76;81.94;98387.09;101919;1298;75330;-22
2022/11/21 01:13:07;;;;;;;9.30;3.90;;;;;;;0.90;80.75;98381.02;101903;1301;61813;-22
2022/11/21 01:15:35;;;;;;;7.10;4.00;;;;;;;0.71;80.37;98381.86;102120;1294;62955;-22
2022/11/21 01:18:02;;;;;;;8.50;4.80;;;;;;;0.48;80.59;98385.43;101981;1299;74560;-22
2022/11/21 01:20:30;;;;;;;8.20;5.20;;;;;;;0.21;81.02;98378.38;102102;1294;76700;-22
2022/11/21 01:22:57;;;;;;;10.70;5.50;;;;;;;-0.07;81.39;98374.43;102222;1297;74961;-22
2022/11/21 01:25:25;;;;;;;10.00;5.60;;;;;;;-0.35;81.71;98372.02;102216;1302;61247;-22
2022/11/21 01:27:52;;;;;;;5.50;3.40;;;;;;;-0.53;82.49;98374.94;102039;1298;61389;-22
2022/11/21 01:30:20;;;;;;;6.80;4.10;;;;;;;-0.04;82.97;98375.00;102293;1299;76352;-22
2022/11/21 01:32:49;;;;;;;8.20;5.30;;;;;;;0.62;81.74;98376.52;102288;1301;77148;-22
2022/11/21 01:35:17;;;;;;;10.30;5.50;;;;;;;0.72;81.09;98383.16;102166;1300;74922;-22
2022/11/21 01:37:48;;;;;;;6.80;3.70;;;;;;;0.53;80.59;98383.95;101976;1303;61823;-22
2022/11/21 01:40:16;;;;;;;7.20;4.40;;;;;;;0.25;80.92;98382.47;101967;1299;63086;-23
2022/11/21 01:43:13;;;;;;;8.20;5.30;;;;;;;-0.07;81.29;98380.27;102059;1299;76362;-23
2022/11/21 01:45:50;;;;;;;10.50;5.20;;;;;;;-0.43;82.62;98374.30;101919;1299;76619;-23
2022/11/21 01:48:18;;;;;;;5.00;2.90;;;;;;;-0.60;83.14;98360.75;101943;1299;73033;-22
2022/11/21 01:50:45;;;;;;;9.50;5.40;;;;;;;-0.08;83.39;98356.77;102191;1298;61809;-23
2022/11/21 01:53:13;;;;;;;14.20;7.20;;;;;;;0.56;82.40;98347.08;101991;1297;62761;-23
2022/11/21 01:55:40;;;;;;;13.90;8.40;;;;;;;0.62;81.21;98342.51;102198;1302;76107;-22
2022/11/21 01:58:08;;;;;;;16.70;8.50;;;;;;;0.38;81.34;98341.86;102039;1298;76708;-22
2022/11/21 02:00:37;;;;;;;14.20;7.10;;;;;;;0.15;81.79;98331.23;102009;1299;73984;-22
2022/11/21 02:03:08;;;;;;;11.00;6.20;;;;;;;-0.24;82.99;98327.15;102007;1299;61170;-22
2022/11/21 02:05:35;;;;;;;13.80;7.70;;;;;;;-0.46;83.65;98320.69;102004;1300;61550;-23
2022/11/21 02:08:05;;;;;;;15.70;8.50;;;;;;;-0.63;84.49;98319.14;101971;1303;75398;-23
2022/11/21 02:10:34;;;;;;;8.70;4.40;;;;;;;-0.81;85.24;98325.73;102056;1294;76742;-23
2022/11/21 02:13:01;;;;;;;21.50;9.60;;;;;;;-0.31;85.13;98326.61;101932;1300;75033;-22
2022/11/21 02:15:29;;;;;;;17.00;8.80;;;;;;;0.39;83.94;98329.20;102174;1298;61152;-22
2022/11/21 02:17:56;;;;;;;17.80;7.90;;;;;;;0.55;82.82;98339.98;102238;1293;61925;-23
2022/11/21 02:20:25;;;;;;;13.00;5.20;;;;;;;0.48;82.47;98338.77;101932;1300;75366;-23
2022/11/21 02:23:22;;;;;;;10.40;5.60;;;;;;;0.27;82.19;98336.60;101952;1302;76773;-23
2022/11/21 02:25:50;;;;;;;13.20;6.60;;;;;;;-0.05;82.25;98339.37;102153;1295;75248;-23
2022/11/21 02:28:18;;;;;;;12.00;6.60;;;;;;;-0.32;82.69;98347.88;101876;1295;61174;-23
2022/11/21 02:30:46;;;;;;;9.20;4.90;;;;;;;-0.58;83.14;98351.95;102172;1302;62919;-23
2022/11/21 02:33:14;;;;;;;6.20;3.00;;;;;;;-0.69;83.54;98359.62;101965;1299;76384;-23
2022/11/21 02:35:41;;;;;;;11.90;5.20;;;;;;;-0.18;84.17;98357.89;101986;1300;76565;-23
2022/11/21 02:38:22;;;;;;;9.60;5.10;;;;;;;0.59;83.09;98362.48;102186;1302;75114;-23
2022/11/21 02:41:06;;;;;;;9.90;5.20;;;;;;;0.72;81.38;98360.64;102096;1297;61563;-23
2022/11/21 02:44:05;;;;;;;10.00;4.70;;;;;;;0.48;80.92;98361.18;101962;1298;62843;-23
2022/11/21 02:46:33;;;;;;;11.30;5.90;;;;;;;0.12;81.03;98359.55;101333;1299;1394037;-23
2022/11/21 02:49:03;;;;;;;10.90;5.60;;;;;;;-0.18;81.67;98360.51;101953;1299;75741;-23
2022/11/21 02:51:31;;;;;;;12.30;5.70;;;;;;;-0.44;82.40;98365.65;102075;1294;75306;-23
2022/11/21 02:53:58;;;;;;;11.60;3.80;;;;;;;-0.60;83.12;98381.73;102067;1293;62111;-23
2022/11/21 02:56:26;;;;;;;9.50;4.40;;;;;;;-0.16;83.74;98390.89;102113;1298;61170;-23
2022/11/21 02:58:54;;;;;;;15.20;7.20;;;;;;;0.51;82.32;98395.17;102165;1295;75389;-22
2022/11/21 03:01:21;;;;;;;12.90;5.60;;;;;;;0.67;81.64;98389.40;102197;1294;76752;-22
2022/11/21 03:03:49;;;;;;;11.10;5.20;;;;;;;0.52;81.22;98387.45;102065;1297;75038;-23
2022/11/21 03:06:16;;;;;;;10.50;4.80;;;;;;;0.25;81.13;98385.72;102068;1300;61961;-22
2022/11/21 03:08:44;;;;;;;8.40;4.20;;;;;;;0.01;81.62;98374.23;102187;1292;61785;-23
2022/11/21 03:11:13;;;;;;;6.90;4.60;;;;;;;-0.17;81.99;98364.38;102315;1297;76254;-23
2022/11/21 03:13:41;;;;;;;9.60;4.70;;;;;;;-0.40;82.03;98359.80;102300;1295;76578;-22
2022/11/21 03:16:08;;;;;;;7.40;3.60;;;;;;;-0.55;82.40;98360.51;102125;1302;73853;-22
2022/11/21 03:18:36;;;;;;;11.30;5.90;;;;;;;-0.18;83.09;98357.23;102122;1297;61924;-23
2022/11/21 03:21:03;;;;;;;13.90;6.70;;;;;;;0.49;82.41;98356.31;102198;1298;62809;-23
2022/11/21 03:23:31;;;;;;;15.50;8.30;;;;;;;0.56;80.75;98363.31;102285;1298;76163;-23
2022/11/21 03:25:59;;;;;;;13.20;6.00;;;;;;;0.41;80.82;98362.02;101919;1292;75739;-22
2022/11/21 03:28:28;;;;;;;11.90;6.10;;;;;;;0.21;81.40;98362.01;102103;1301;74986;-22
2022/11/21 03:30:55;;;;;;;18.30;8.40;;;;;;;-0.05;81.92;98356.08;102232;1302;61177;-23
2022/11/21 03:33:23;;;;;;;18.40;8.90;;;;;;;-0.25;82.51;98362.17;101929;1294;62858;-23
2022/11/21 03:35:50;;;;;;;17.50;10.20;;;;;;;-0.42;82.97;98370.33;102218;1292;76213;-23
2022/11/21 03:38:19;;;;;;;9.80;5.10;;;;;;;-0.56;83.21;98367.23;102104;1301;76764;-23
2022/11/21 03:40:47;;;;;;;17.60;8.10;;;;;;;-0.10;83.34;98357.70;101951;1295;74472;-23
2022/11/21 03:43:15;;;;;;;15.50;7.90;;;;;;;0.60;82.39;98352.35;101926;1295;61657;-23
2022/11/21 03:45:45;;;;;;;18.30;9.50;;;;;;;0.78;81.45;98353.48;102185;1301;61804;-23
2022/11/21 03:48:14;;;;;;;7.60;4.50;;;;;;;0.64;80.92;98362.39;101962;1292;76496;-23
2022/11/21 03:50:43;;;;;;;11.70;5.80;;;;;;;0.42;80.84;98364.52;101971;1305;75635;-22
2022/11/21 03:53:10;;;;;;;6.30;4.40;;;;;;;0.13;80.64;98359.33;102165;1294;73693;-23
2022/11/21 03:55:38;;;;;;;8.30;3.90;;;;;;;-0.09;81.05;98347.95;102292;1291;61240;-22
2022/11/21 03:58:05;;;;;;;4.60;3.00;;;;;;;-0.28;81.32;98351.09;102315;1299;62874;-22
2022/11/21 04:00:33;;;;;;;3.30;2.00;;;;;;;-0.45;81.65;98356.46;102306;1297;75072;-22
2022/11/21 04:03:01;;;;;;;1.90;1.50;;;;;;;-0.08;81.45;98357.25;102289;1298;75601;-22
2022/11/21 04:05:28;;;;;;;2.50;1.70;;;;;;;0.52;80.85;98366.08;102101;1302;73880;-22
2022/11/21 04:07:56;;;;;;;3.40;2.00;;;;;;;0.56;79.21;98368.97;101978;1299;62491;-22
2022/11/21 04:10:24;;;;;;;2.20;1.60;;;;;;;0.36;79.23;98386.52;102122;1297;62663;-22
2022/11/21 04:12:51;;;;;;;2.60;1.80;;;;;;;0.12;79.59;98390.09;101928;1299;76463;-22
2022/11/21 04:15:18;;;;;;;3.20;2.20;;;;;;;-0.09;80.15;98395.05;101984;1280;74854;-22
2022/11/21 04:17:46;;;;;;;5.40;3.80;;;;;;;-0.27;80.74;98391.80;102243;1302;75231;-22
2022/11/21 04:20:14;;;;;;;7.90;3.80;;;;;;;-0.51;81.04;98398.20;102174;1298;62069;-22
2022/11/21 04:22:42;;;;;;;6.90;3.40;;;;;;;-0.69;81.77;98398.84;101963;1301;61996;-22
2022/11/21 04:25:09;;;;;;;7.10;4.20;;;;;;;-0.12;82.07;98393.29;101948;1300;76314;-23
2022/11/21 04:27:37;;;;;;;8.20;5.20;;;;;;;0.50;81.05;98391.13;102268;1299;75435;-23
2022/11/21 04:30:05;;;;;;;4.00;3.30;;;;;;;0.60;80.10;98389.45;102206;1295;73865;-23
2022/11/21 04:32:33;;;;;;;5.80;2.90;;;;;;;0.41;79.76;98382.54;101939;1300;62718;-22
2022/11/21 04:35:00;;;;;;;3.90;2.50;;;;;;;0.14;79.97;98377.55;101961;1294;61786;-22
2022/11/21 04:37:28;;;;;;;3.70;2.40;;;;;;;-0.11;80.21;98365.28;102214;1302;76499;-23
2022/11/21 04:39:55;;;;;;;5.00;2.70;;;;;;;-0.34;80.72;98353.89;101962;1299;75739;-23
2022/11/21 04:42:23;;;;;;;7.20;4.00;;;;;;;-0.56;81.23;98346.25;102246;1302;74935;-23
2022/11/21 04:44:50;;;;;;;5.90;2.80;;;;;;;-0.74;81.92;98340.92;102264;1286;61648;-23
2022/11/21 04:47:18;;;;;;;11.00;4.80;;;;;;;-0.26;82.29;98330.33;102178;1302;61818;-23
2022/11/21 04:49:45;;;;;;;14.30;6.30;;;;;;;0.42;81.35;98324.25;102165;1299;76086;-22
2022/11/21 04:52:13;;;;;;;9.90;5.30;;;;;;;0.60;80.61;98330.85;102204;1299;75613;-23
2022/11/21 04:54:40;;;;;;;8.90;4.50;;;;;;;0.48;80.45;98343.25;101862;1301;74185;-23
2022/11/21 04:57:08;;;;;;;6.80;3.30;;;;;;;0.27;80.47;98343.46;102200;1299;61189;-22
2022/11/21 04:59:35;;;;;;;6.90;3.90;;;;;;;0.01;80.36;98344.04;102199;1298;62759;-23
2022/11/21 05:02:03;;;;;;;5.90;3.50;;;;;;;-0.27;80.99;98341.45;101989;1299;75297;-22
2022/11/21 05:04:31;;;;;;;7.10;4.20;;;;;;;-0.53;81.46;98342.00;102225;1302;76727;-23
2022/11/21 05:06:59;;;;;;;4.80;3.30;;;;;;;-0.43;82.08;98346.97;102142;1295;74162;-23
2022/11/21 05:09:27;;;;;;;12.80;6.70;;;;;;;0.24;80.86;98347.54;102150;1301;62803;-23
2022/11/21 05:14:40;;;;;;;6.90;3.60;;;;;;;0.25;79.67;98340.64;102068;1299;76343;-23
2022/11/21 05:17:08;;;;;;;5.40;3.00;;;;;;;0.03;79.94;98344.27;101914;1294;76719;-23
2022/11/21 05:19:35;;;;;;;3.20;2.00;;;;;;;-0.20;80.44;98337.36;102094;1298;74335;-23
2022/11/21 05:22:06;;;;;;;3.60;2.30;;;;;;;-0.42;80.92;98328.70;102119;1299;61104;-23
2022/11/21 05:24:33;;;;;;;6.30;4.70;;;;;;;-0.60;81.44;98322.41;102105;1302;62684;-23
2022/11/21 05:27:01;;;;;;;9.30;3.10;;;;;;;-0.87;82.86;98310.48;102243;1293;76295;-23
2022/11/21 05:29:28;;;;;;;11.30;6.60;;;;;;;-0.47;83.04;98308.96;102062;1299;77142;-23
2022/11/21 05:31:57;;;;;;;10.10;6.80;;;;;;;0.18;81.67;98301.36;102059;1302;75206;-23
2022/11/21 05:34:24;;;;;;;19.10;11.50;;;;;;;0.26;80.42;98292.27;101876;1300;62880;-23
2022/11/21 05:36:57;;;;;;;16.80;10.20;;;;;;;-0.18;80.93;98289.17;102248;1300;62878;-23
2022/11/21 05:39:25;;;;;;;13.90;8.30;;;;;;;-0.38;81.78;98288.06;102253;1292;76473;-22
2022/11/21 05:41:52;;;;;;;11.10;5.90;;;;;;;-0.59;82.12;98287.02;101997;1301;76824;-22
2022/11/21 05:44:27;;;;;;;6.90;3.40;;;;;;;-0.71;82.30;98294.41;102084;1294;74221;-22
2022/11/21 05:46:55;;;;;;;5.50;3.00;;;;;;;-0.85;82.31;98286.58;102161;1299;61177;-22
2022/11/21 05:49:22;;;;;;;3.00;2.00;;;;;;;-0.96;82.47;98284.17;101927;1299;63168;-22
2022/11/21 05:51:50;;;;;;;3.60;2.80;;;;;;;-0.39;82.72;98287.60;102114;1298;76373;-22
2022/11/21 05:54:17;;;;;;;3.20;2.50;;;;;;;0.05;81.15;98289.75;102102;1298;76479;-22
2022/11/21 05:56:45;;;;;;;6.10;3.60;;;;;;;-0.13;80.57;98291.13;102153;1299;75227;-23
2022/11/21 05:59:12;;;;;;;7.60;4.70;;;;;;;-0.14;81.25;98287.60;102078;1298;62233;-22
2022/11/21 06:04:26;;;;;;;6.40;4.00;;;;;;;-0.51;81.63;98284.95;101935;1299;76424;-22
2022/11/21 06:06:59;;;;;;;6.60;4.40;;;;;;;-0.65;82.30;98285.95;102320;1298;76695;-22
2022/11/21 06:09:32;;;;;;;5.80;3.50;;;;;;;-0.84;82.87;98285.98;102216;1301;75183;-22
2022/11/21 06:11:59;;;;;;;3.30;2.00;;;;;;;-0.95;83.19;98280.39;101912;1300;63917;-23
2022/11/21 06:14:27;;;;;;;5.50;2.60;;;;;;;-0.45;83.04;98278.02;101903;1303;62507;-23
2022/11/21 06:16:55;;;;;;;9.20;4.30;;;;;;;0.23;81.62;98280.14;102218;1299;76399;-23
2022/11/21 06:19:23;;;;;;;8.20;5.50;;;;;;;0.34;80.05;98270.68;102153;1302;76755;-23
2022/11/21 06:21:51;;;;;;;7.80;4.10;;;;;;;0.24;79.72;98271.90;101944;1295;74141;-23
2022/11/21 06:24:20;;;;;;;4.30;2.90;;;;;;;-0.04;79.85;98275.70;102054;1294;62082;-23
2022/11/21 06:26:55;;;;;;;4.70;3.00;;;;;;;-0.23;80.39;98276.09;102202;1298;62971;-22
2022/11/21 06:29:24;;;;;;;5.50;4.10;;;;;;;-0.48;81.14;98273.71;102058;1302;76526;-22
2022/11/21 06:31:54;;;;;;;6.80;4.60;;;;;;;-0.98;83.22;98277.29;102020;1291;75193;-22
2022/11/21 06:34:25;;;;;;;4.30;3.10;;;;;;;-0.61;83.83;98280.99;102082;1300;75634;-23
2022/11/21 06:36:54;;;;;;;5.00;3.10;;;;;;;0.26;81.71;98279.79;102074;1299;62145;-23
2022/11/21 06:39:23;;;;;;;5.20;3.30;;;;;;;0.51;78.95;98283.80;102218;1300;62371;-23
2022/11/21 06:41:50;;;;;;;4.90;2.70;;;;;;;0.30;78.96;98291.70;102281;1298;75401;-23
2022/11/21 06:44:19;;;;;;;5.20;2.70;;;;;;;0.26;79.74;98297.91;102014;1302;76894;-23
2022/11/21 06:46:47;;;;;;;6.10;4.10;;;;;;;0.13;80.14;98301.64;102234;1305;74165;-23
2022/11/21 06:49:17;;;;;;;8.70;5.20;;;;;;;-0.02;80.34;98291.98;102248;1302;62228;-23
2022/11/21 06:51:45;;;;;;;9.20;5.40;;;;;;;-0.18;80.70;98280.80;102202;1302;62722;-23
2022/11/21 06:54:12;;;;;;;8.20;4.40;;;;;;;-0.37;80.88;98284.64;102215;1304;76215;-23
2022/11/21 06:56:54;;;;;;;5.40;2.80;;;;;;;-0.47;81.31;98286.62;102229;1302;76608;-23
2022/11/21 06:59:22;;;;;;;4.50;2.80;;;;;;;0.19;81.14;98292.79;102051;1301;74118;-23
2022/11/21 07:01:50;;;;;;;5.10;3.40;;;;;;;0.76;79.80;98290.52;102302;1302;61571;-23
2022/11/21 07:04:17;;;;;;;3.60;2.90;;;;;;;0.88;79.04;98286.47;102103;1297;61158;-23
2022/11/21 07:06:46;;;;;;;5.40;3.80;;;;;;;0.76;78.93;98281.12;102293;1302;76347;-23
2022/11/21 07:09:15;;;;;;;6.10;3.40;;;;;;;0.50;78.80;98283.87;101964;1299;75661;-23
2022/11/21 07:13:20;;;;;;;10.90;5.90;;;;;;;0.26;79.38;98288.36;101985;1294;73980;-23
2022/11/21 07:14:50;;;;;;;11.30;6.70;;;;;;;0.00;80.17;98287.23;101939;1297;61206;-23
2022/11/21 07:17:18;;;;;;;7.50;5.50;;;;;;;-0.31;81.70;98282.45;101974;1302;61525;-22
2022/11/21 07:19:46;;;;;;;7.80;4.40;;;;;;;-0.47;82.48;98278.96;102170;1299;76383;-23
2022/11/21 07:22:13;;;;;;;10.80;5.60;;;;;;;0.05;82.53;98281.69;102191;1297;74613;-23
2022/11/21 07:24:41;;;;;;;10.30;5.50;;;;;;;0.71;80.17;98274.90;101967;1299;73406;-23
2022/11/21 07:27:09;;;;;;;5.20;3.50;;;;;;;0.86;79.06;98266.27;101969;1301;61572;-22
2022/11/21 07:29:37;;;;;;;4.90;3.00;;;;;;;0.76;79.12;98262.66;102298;1299;61798;-22
2022/11/21 07:32:06;;;;;;;3.50;2.60;;;;;;;0.50;78.93;98256.89;102224;1302;76408;-22
2022/11/21 07:34:34;;;;;;;4.50;2.80;;;;;;;0.29;79.44;98246.69;102263;1294;76924;-22
2022/11/21 07:37:02;;;;;;;3.70;2.90;;;;;;;0.05;80.07;98244.82;102244;1299;74988;-22
2022/11/21 07:39:31;;;;;;;5.10;3.20;;;;;;;-0.13;80.47;98249.52;102302;1297;61747;-22
2022/11/21 07:42:01;;;;;;;4.20;2.10;;;;;;;-0.27;81.30;98256.86;102220;1292;61792;-22
2022/11/21 07:44:29;;;;;;;5.40;2.90;;;;;;;0.27;81.02;98253.63;101909;1298;75014;-21
2022/11/21 07:46:58;;;;;;;5.80;4.10;;;;;;;0.92;79.34;98253.96;101869;1295;75765;-22
2022/11/21 07:49:26;;;;;;;6.00;3.70;;;;;;;1.00;77.99;98255.92;101959;1300;73898;-22
2022/11/21 07:51:55;;;;;;;5.70;3.30;;;;;;;0.82;78.05;98257.23;101916;1300;62590;-21
2022/11/21 07:54:22;;;;;;;5.60;3.70;;;;;;;0.61;78.33;98254.61;102001;1299;61126;-21
2022/11/21 07:56:50;;;;;;;8.60;6.00;;;;;;;0.43;79.00;98258.11;102235;1296;76216;-21
2022/11/21 07:59:18;;;;;;;7.60;5.30;;;;;;;0.22;79.26;98260.20;102193;1297;76694;-21
2022/11/21 08:01:46;;;;;;;7.50;4.90;;;;;;;-0.01;80.19;98265.63;102291;1294;75474;-21
2022/11/21 08:04:13;;;;;;;3.70;2.60;;;;;;;-0.04;80.23;98263.05;102289;1303;63395;-21
2022/11/21 08:06:41;;;;;;;4.90;3.20;;;;;;;0.41;79.62;98267.27;102317;1299;62981;-21
2022/11/21 08:09:09;;;;;;;4.20;3.00;;;;;;;0.88;78.37;98271.10;102291;1303;76585;-21
2022/11/21 08:11:37;;;;;;;2.90;2.20;;;;;;;0.95;77.20;98274.45;102205;1295;74955;-21
2022/11/21 08:14:05;;;;;;;4.60;2.40;;;;;;;0.79;77.12;98277.42;102289;1299;74105;-21
2022/11/21 08:16:33;;;;;;;3.40;2.80;;;;;;;0.59;77.48;98279.62;102038;1299;61969;-21
2022/11/21 08:19:00;;;;;;;4.30;2.70;;;;;;;0.42;77.88;98284.09;102289;1302;62683;-21
2022/11/21 08:21:28;;;;;;;2.90;2.00;;;;;;;0.24;78.26;98280.95;102316;1297;76329;-21
2022/11/21 08:23:55;;;;;;;4.20;2.80;;;;;;;0.12;78.86;98284.42;102062;1299;74764;-21
2022/11/21 08:26:23;;;;;;;5.60;3.70;;;;;;;0.65;78.86;98291.11;102215;1294;75432;-21
2022/11/21 08:28:51;;;;;;;8.30;4.80;;;;;;;1.12;77.26;98292.20;102017;1298;62428;-21
2022/11/21 08:31:25;;;;;;;4.70;2.50;;;;;;;1.12;76.43;98299.39;101923;1299;62743;-21
2022/11/21 08:33:56;;;;;;;7.10;2.50;;;;;;;0.87;76.46;98306.36;102242;1298;76422;-21
2022/11/21 08:36:24;;;;;;;3.50;2.40;;;;;;;0.63;77.17;98307.42;101986;1302;76704;-21
2022/11/21 08:38:52;;;;;;;3.90;3.10;;;;;;;0.42;77.91;98306.64;102259;1299;75055;-21
2022/11/21 08:44:06;;;;;;;4.80;3.20;;;;;;;0.12;79.00;98308.33;102042;1299;61781;-21
2022/11/21 08:46:40;;;;;;;2.80;1.90;;;;;;;0.12;79.31;98300.98;102244;1299;76355;-21
2022/11/21 08:49:07;;;;;;;2.90;1.60;;;;;;;0.66;79.08;98295.50;102248;1302;76710;-21
2022/11/21 08:51:37;;;;;;;2.90;2.20;;;;;;;1.29;77.13;98282.20;102002;1302;74931;-21
2022/11/21 08:54:05;;;;;;;3.70;2.20;;;;;;;1.43;76.44;98275.11;102186;1299;62655;-21
2022/11/21 08:56:32;;;;;;;3.10;2.10;;;;;;;1.37;76.20;98271.86;101908;1300;61022;-21
2022/11/21 08:59:01;;;;;;;4.40;2.50;;;;;;;1.26;76.07;98273.46;102204;1302;76305;-21
2022/11/21 09:01:28;;;;;;;2.90;2.50;;;;;;;1.06;76.16;98273.05;102065;1295;75647;-21
2022/11/21 09:03:56;;;;;;;4.80;3.20;;;;;;;0.82;76.57;98269.36;102330;1302;75312;-21
2022/11/21 09:06:25;;;;;;;2.80;2.00;;;;;;;0.65;77.29;98264.42;102305;1297;62085;-21
2022/11/21 09:08:53;;;;;;;3.60;2.40;;;;;;;0.54;77.62;98263.67;102269;1299;61533;-21
2022/11/21 09:11:20;;;;;;;3.40;2.00;;;;;;;0.84;78.41;98256.59;102261;1299;75949;-21
2022/11/21 09:18:01;;;;;;;3.20;2.00;;;;;;;1.52;76.97;98254.58;101948;1298;75637;-21
2022/11/21 09:19:28;;;;;;;4.70;3.10;;;;;;;1.32;75.68;98250.41;102176;1294;62009;-21
2022/11/21 09:21:57;;;;;;;5.50;3.10;;;;;;;1.11;76.10;98250.16;102159;1302;62757;-21
2022/11/21 09:24:25;;;;;;;5.60;3.50;;;;;;;0.92;76.42;98250.89;102388;1300;76516;-21
2022/11/21 09:26:53;;;;;;;4.30;3.20;;;;;;;0.77;76.99;98252.02;102315;1298;76484;-21
2022/11/21 09:29:21;;;;;;;5.20;3.80;;;;;;;0.58;77.23;98252.36;102044;1302;75264;-21
2022/11/21 09:31:50;;;;;;;3.30;2.30;;;;;;;0.46;77.86;98248.38;101944;1294;63614;-21
2022/11/21 09:34:18;;;;;;;3.00;2.00;;;;;;;0.91;77.83;98244.09;101972;1301;61206;-22
2022/11/21 09:36:48;;;;;;;5.00;3.20;;;;;;;1.38;75.50;98243.76;101942;1299;76328;-21
2022/11/21 09:39:16;;;;;;;5.10;3.00;;;;;;;1.62;75.50;98244.92;102102;1304;76541;-21
2022/11/21 09:41:52;;;;;;;4.10;2.50;;;;;;;1.51;75.02;98243.03;102191;1299;74922;-21
2022/11/21 09:44:54;;;;;;;7.70;4.60;;;;;;;1.21;75.27;98237.66;102187;1302;61261;-21
2022/11/21 09:47:29;;;;;;;5.80;4.10;;;;;;;0.72;76.54;98237.43;101970;1299;62467;-21
2022/11/21 09:50:38;;;;;;;5.40;3.40;;;;;;;0.64;77.43;98232.94;101889;1295;76086;-21
2022/11/21 09:53:26;;;;;;;6.60;4.30;;;;;;;0.46;77.49;98230.77;101984;1300;76928;-21
2022/11/21 09:55:58;;;;;;;5.50;3.40;;;;;;;0.39;78.22;98229.45;101982;1297;73967;-22
2022/11/21 09:58:36;;;;;;;5.40;3.20;;;;;;;0.95;78.06;98221.51;101917;1295;61137;-22
2022/11/21 10:01:04;;;;;;;5.90;3.90;;;;;;;1.32;76.36;98219.81;101937;1301;62872;-21
2022/11/21 10:03:38;;;;;;;6.00;3.10;;;;;;;1.24;76.00;98213.55;101891;1301;75371;-21
2022/11/21 10:06:26;;;;;;;7.40;5.00;;;;;;;0.97;76.50;98206.14;101887;1299;76740;-21
2022/11/21 10:09:06;;;;;;;8.20;5.70;;;;;;;0.65;77.96;98197.66;101964;1300;75319;-22
2022/11/21 10:15:32;;;;;;;39.50;19.10;;;;;;;-0.07;80.99;98184.89;102006;1301;62876;-21
2022/11/21 10:18:21;;;;;;;110.40;52.00;;;;;;;-0.04;81.72;98178.75;102322;1282;76348;-21
2022/11/21 10:21:16;;;;;;;75.30;38.20;;;;;;;0.24;80.76;98167.41;102174;1302;76556;-21
2022/11/21 10:24:00;;;;;;;31.70;17.50;;;;;;;0.11;81.50;98156.98;101743;1302;75179;-21
2022/11/21 10:27:02;;;;;;;17.80;10.30;;;;;;;-0.33;82.67;98154.79;102007;1298;61611;-21
2022/11/21 10:30:13;;;;;;;55.20;28.30;;;;;;;-0.41;84.09;98155.38;102297;1299;62568;-21
2022/11/21 10:32:43;;;;;;;67.50;32.70;;;;;;;-0.70;84.69;98155.08;101975;1299;71588;-21
2022/11/21 10:35:18;;;;;;;42.30;20.00;;;;;;;-0.42;85.29;98148.58;102023;1302;76761;-21
2022/11/21 10:37:52;;;;;;;34.00;17.20;;;;;;;0.25;82.64;98143.11;101968;1299;74166;-21
2022/11/21 10:40:25;;;;;;;50.80;25.80;;;;;;;-0.01;82.94;98137.11;102002;1302;62624;-22
2022/11/21 10:42:59;;;;;;;23.30;16.80;;;;;;;-0.32;83.77;98129.52;101983;1295;62642;-21
2022/11/21 10:45:27;;;;;;;39.40;20.10;;;;;;;-0.60;85.32;98123.09;101941;1299;76405;-21
2022/11/21 10:47:54;;;;;;;33.00;19.30;;;;;;;-0.93;86.54;98113.64;102219;1302;76527;-21
2022/11/21 10:50:49;;;;;;;49.20;24.50;;;;;;;-1.10;88.11;98109.83;102279;1302;74995;-21
2022/11/21 10:56:20;;;;;;;33.80;18.50;;;;;;;-0.22;84.56;98094.17;101933;1300;62074;-21
2022/11/21 10:58:50;;;;;;;53.00;26.50;;;;;;;-0.75;85.67;98086.99;102152;1299;75328;-21
2022/11/21 11:01:18;;;;;;;62.10;32.90;;;;;;;-0.78;86.37;98086.11;102046;1303;76907;-21
2022/11/21 11:04:11;;;;;;;61.00;27.50;;;;;;;-1.06;87.32;98079.31;102095;1301;74211;-21
2022/11/21 11:06:54;;;;;;;36.90;18.40;;;;;;;-1.33;89.15;98070.06;102176;1299;61839;-21
2022/11/21 11:09:30;;;;;;;55.50;24.60;;;;;;;-0.97;88.51;98070.70;102052;1299;61770;-21
2022/11/21 11:15:24;;;;;;;44.50;20.20;;;;;;;-0.84;88.44;98052.86;102066;1299;75531;-21
2022/11/21 11:18:02;;;;;;;50.80;24.90;;;;;;;-0.83;87.48;98049.93;102169;1302;75397;-21
2022/11/21 11:20:36;;;;;;;;;;;;;;;-1.08;88.69;98040.95;101939;1297;63423;-21
2022/11/21 11:23:19;;;;;;;56.20;32.40;;;;;;;-0.82;88.74;98044.24;101921;1302;62473;-21
2022/11/21 11:25:51;;;;;;;78.00;41.90;;;;;;;-0.80;87.81;98034.56;102136;1299;76654;-21
2022/11/21 11:28:20;;;;;;;23.20;12.90;;;;;;;-0.70;87.94;98025.23;102100;1300;76729;-21
2022/11/21 11:30:48;;;;;;;39.60;19.00;;;;;;;-0.68;87.43;98021.39;102165;1294;75407;-21
2022/11/21 11:33:53;;;;;;;29.80;13.90;;;;;;;-0.74;87.21;98017.42;102051;1305;61205;-21
2022/11/21 11:36:43;;;;;;;36.70;18.60;;;;;;;-1.09;88.74;98017.29;102033;1300;62838;-21
2022/11/21 11:39:38;;;;;;;39.80;20.90;;;;;;;-0.56;87.40;98011.19;102201;1298;76484;-21
2022/11/21 11:48:00;;;;;;;107.50;42.30;;;;;;;-1.05;87.94;98014.71;102131;1301;61183;-21
2022/11/21 11:50:31;;;;;;;122.70;46.40;;;;;;;-1.25;89.38;98011.97;101916;1299;61918;-21
2022/11/21 11:53:11;;;;;;;97.00;36.40;;;;;;;-1.29;90.05;98004.34;101909;1295;75239;-22
2022/11/21 11:55:42;;;;;;;69.70;29.50;;;;;;;-0.47;87.90;98001.20;102058;1299;76854;-21
2022/11/21 11:58:17;;;;;;;30.10;13.00;;;;;;;-0.50;86.33;97993.33;101926;1304;75203;-22
2022/11/21 12:01:07;;;;;;;75.70;41.30;;;;;;;-0.69;86.71;97993.27;101931;1298;61818;-22
2022/11/21 12:04:09;;;;;;;50.00;25.10;;;;;;;-1.07;88.16;97993.16;102020;1299;61810;-22
2022/11/21 12:06:54;;;;;;;24.20;13.30;;;;;;;-1.03;88.89;97994.85;102260;1299;76377;-22
2022/11/21 12:10:15;;;;;;;48.70;22.30;;;;;;;-0.31;86.45;97984.81;102051;1297;76726;-22
2022/11/21 12:12:47;;;;;;;61.60;31.50;;;;;;;-0.32;84.79;97975.98;101963;1296;74507;-22